PTFLR SBFL-SBCG
Flight info
| Callsign | PTFLR |
|---|---|
| Flight time | 1h 50m |
| Altitude | 28000 |
| Route | FLN JNV PRR GRD |
| Aircraft | F28/M-SDF/C |
Departure
| Time | 2026-04-29 10:17 |
|---|---|
| Airport | Hercílio Luz International Airport (SBFL) |
Arrival
| Time | 2026-04-29 12:08 |
|---|---|
| Airport | Campo Grande Airport (SBCG) |
| Time | Latitude | Longitude | Altitude | Speed | Heading |
|---|---|---|---|---|---|
| 2026-04-29 09:55 | -27.67217 | -48.54453 | 24 ft | 0 kts | 31° |
| 2026-04-29 10:04 | -27.67228 | -48.54461 | 24 ft | 2 kts | 45° |
| 2026-04-29 10:05 | -27.67234 | -48.54474 | 28 ft | 2 kts | 82° |
| 2026-04-29 10:05 | -27.67233 | -48.54490 | 28 ft | 2 kts | 103° |
| 2026-04-29 10:05 | -27.67230 | -48.54500 | 28 ft | 0 kts | 115° |
| 2026-04-29 10:09 | -27.67233 | -48.54493 | 26 ft | 1 kts | 116° |
| 2026-04-29 10:09 | -27.67239 | -48.54481 | 28 ft | 3 kts | 120° |
| 2026-04-29 10:10 | -27.67256 | -48.54451 | 25 ft | 5 kts | 126° |
| 2026-04-29 10:10 | -27.67280 | -48.54420 | 24 ft | 5 kts | 131° |
| 2026-04-29 10:10 | -27.67288 | -48.54388 | 24 ft | 4 kts | 72° |
| 2026-04-29 10:10 | -27.67271 | -48.54367 | 24 ft | 4 kts | 36° |
| 2026-04-29 10:11 | -27.67247 | -48.54349 | 24 ft | 4 kts | 32° |
| 2026-04-29 10:11 | -27.67220 | -48.54329 | 25 ft | 5 kts | 41° |
| 2026-04-29 10:11 | -27.67212 | -48.54296 | 24 ft | 5 kts | 102° |
| 2026-04-29 10:11 | -27.67227 | -48.54261 | 24 ft | 5 kts | 120° |
| 2026-04-29 10:12 | -27.67248 | -48.54221 | 24 ft | 6 kts | 121° |
| 2026-04-29 10:12 | -27.67273 | -48.54175 | 25 ft | 7 kts | 121° |
| 2026-04-29 10:12 | -27.67301 | -48.54123 | 24 ft | 8 kts | 121° |
| 2026-04-29 10:12 | -27.67333 | -48.54064 | 24 ft | 9 kts | 121° |
| 2026-04-29 10:13 | -27.67368 | -48.53998 | 25 ft | 10 kts | 121° |
| 2026-04-29 10:13 | -27.67408 | -48.53925 | 26 ft | 11 kts | 121° |
| 2026-04-29 10:13 | -27.67454 | -48.53848 | 26 ft | 12 kts | 126° |
| 2026-04-29 10:13 | -27.67501 | -48.53763 | 25 ft | 12 kts | 119° |
| 2026-04-29 10:14 | -27.67542 | -48.53681 | 25 ft | 12 kts | 121° |
| 2026-04-29 10:14 | -27.67585 | -48.53602 | 25 ft | 12 kts | 121° |
| 2026-04-29 10:14 | -27.67628 | -48.53527 | 25 ft | 11 kts | 123° |
| 2026-04-29 10:14 | -27.67670 | -48.53454 | 26 ft | 11 kts | 122° |
| 2026-04-29 10:15 | -27.67710 | -48.53380 | 24 ft | 11 kts | 123° |
| 2026-04-29 10:15 | -27.67752 | -48.53307 | 24 ft | 11 kts | 123° |
| 2026-04-29 10:15 | -27.67793 | -48.53234 | 24 ft | 11 kts | 121° |
| 2026-04-29 10:15 | -27.67801 | -48.53161 | 24 ft | 9 kts | 56° |
| 2026-04-29 10:16 | -27.67756 | -48.53116 | 25 ft | 8 kts | 38° |
| 2026-04-29 10:16 | -27.67729 | -48.53092 | 26 ft | 7 kts | 38° |
| 2026-04-29 10:16 | -27.67688 | -48.53065 | 25 ft | 4 kts | 352° |
| 2026-04-29 10:16 | -27.67673 | -48.53080 | 26 ft | 2 kts | 303° |
| 2026-04-29 10:17 | -27.67627 | -48.53163 | 25 ft | 36 kts | 301° |
| 2026-04-29 10:17 | -27.67361 | -48.53652 | 22 ft | 109 kts | 301° |
| 2026-04-29 10:17 | -27.66852 | -48.54593 | 103 ft | 164 kts | 303° |
| 2026-04-29 10:17 | -27.66210 | -48.55788 | 706 ft | 183 kts | 301° |
| 2026-04-29 10:18 | -27.65517 | -48.57059 | 1403 ft | 203 kts | 304° |
| 2026-04-29 10:18 | -27.64703 | -48.58451 | 1932 ft | 223 kts | 305° |
| 2026-04-29 10:18 | -27.63571 | -48.59659 | 2542 ft | 228 kts | 335° |
| 2026-04-29 10:18 | -27.62009 | -48.59935 | 3067 ft | 232 kts | 8° |
| 2026-04-29 10:19 | -27.60512 | -48.59286 | 3539 ft | 235 kts | 24° |
| 2026-04-29 10:19 | -27.59065 | -48.58382 | 3989 ft | 239 kts | 27° |
| 2026-04-29 10:19 | -27.57633 | -48.57412 | 4366 ft | 242 kts | 28° |
| 2026-04-29 10:19 | -27.56186 | -48.56424 | 4682 ft | 243 kts | 22° |
| 2026-04-29 10:20 | -27.54583 | -48.56066 | 4932 ft | 237 kts | 353° |
| 2026-04-29 10:20 | -27.52956 | -48.56386 | 5183 ft | 238 kts | 346° |
| 2026-04-29 10:20 | -27.51331 | -48.56802 | 5394 ft | 241 kts | 345° |
| 2026-04-29 10:20 | -27.49654 | -48.57166 | 5556 ft | 249 kts | 348° |
| 2026-04-29 10:21 | -27.47922 | -48.57486 | 5866 ft | 252 kts | 348° |
| 2026-04-29 10:21 | -27.46184 | -48.57795 | 6190 ft | 254 kts | 348° |
| 2026-04-29 10:21 | -27.44435 | -48.58108 | 6541 ft | 255 kts | 347° |
| 2026-04-29 10:21 | -27.42675 | -48.58423 | 6875 ft | 257 kts | 346° |
| 2026-04-29 10:22 | -27.40917 | -48.58759 | 7279 ft | 257 kts | 344° |
| 2026-04-29 10:22 | -27.39160 | -48.59199 | 7647 ft | 259 kts | 342° |
| 2026-04-29 10:22 | -27.37398 | -48.59673 | 8006 ft | 261 kts | 342° |
| 2026-04-29 10:22 | -27.35635 | -48.60169 | 8441 ft | 261 kts | 341° |
| 2026-04-29 10:23 | -27.33888 | -48.60659 | 8845 ft | 263 kts | 341° |
| 2026-04-29 10:23 | -27.32095 | -48.61116 | 9270 ft | 266 kts | 345° |
| 2026-04-29 10:23 | -27.30257 | -48.61451 | 9704 ft | 269 kts | 345° |
| 2026-04-29 10:23 | -27.28399 | -48.61774 | 10146 ft | 271 kts | 346° |
| 2026-04-29 10:24 | -27.26534 | -48.62093 | 10610 ft | 271 kts | 346° |
| 2026-04-29 10:24 | -27.24664 | -48.62411 | 11072 ft | 272 kts | 345° |
| 2026-04-29 10:24 | -27.22787 | -48.62731 | 11553 ft | 273 kts | 345° |
| 2026-04-29 10:24 | -27.20904 | -48.63055 | 12034 ft | 275 kts | 345° |
| 2026-04-29 10:25 | -27.19009 | -48.63378 | 12489 ft | 276 kts | 345° |
| 2026-04-29 10:25 | -27.17102 | -48.63704 | 12952 ft | 278 kts | 345° |
| 2026-04-29 10:25 | -27.15180 | -48.64033 | 13405 ft | 279 kts | 345° |
| 2026-04-29 10:25 | -27.13247 | -48.64363 | 13849 ft | 282 kts | 345° |
| 2026-04-29 10:26 | -27.11323 | -48.64694 | 14254 ft | 283 kts | 344° |
| 2026-04-29 10:26 | -27.09366 | -48.65025 | 14689 ft | 285 kts | 345° |
| 2026-04-29 10:26 | -27.07400 | -48.65357 | 15108 ft | 286 kts | 345° |
| 2026-04-29 10:26 | -27.05445 | -48.65699 | 15626 ft | 284 kts | 344° |
| 2026-04-29 10:27 | -27.01498 | -48.66372 | 16349 ft | 288 kts | 344° |
| 2026-04-29 10:27 | -26.99512 | -48.66709 | 16646 ft | 289 kts | 344° |
| 2026-04-29 10:27 | -26.97514 | -48.67051 | 16963 ft | 290 kts | 344° |
| 2026-04-29 10:28 | -26.95512 | -48.67390 | 17277 ft | 291 kts | 344° |
| 2026-04-29 10:28 | -26.93504 | -48.67732 | 17578 ft | 293 kts | 344° |
| 2026-04-29 10:28 | -26.91517 | -48.68072 | 17899 ft | 293 kts | 344° |
| 2026-04-29 10:28 | -26.89498 | -48.68417 | 18225 ft | 294 kts | 344° |
| 2026-04-29 10:29 | -26.87472 | -48.68762 | 18532 ft | 295 kts | 344° |
| 2026-04-29 10:29 | -26.85444 | -48.69107 | 18841 ft | 295 kts | 344° |
| 2026-04-29 10:29 | -26.83412 | -48.69452 | 19141 ft | 296 kts | 344° |
| 2026-04-29 10:29 | -26.81371 | -48.69799 | 19449 ft | 297 kts | 344° |
| 2026-04-29 10:30 | -26.79316 | -48.70148 | 19757 ft | 298 kts | 344° |
| 2026-04-29 10:30 | -26.77265 | -48.70499 | 20070 ft | 299 kts | 344° |
| 2026-04-29 10:30 | -26.75203 | -48.70848 | 20418 ft | 300 kts | 344° |
| 2026-04-29 10:30 | -26.73133 | -48.71198 | 20760 ft | 301 kts | 344° |
| 2026-04-29 10:31 | -26.71061 | -48.71551 | 21092 ft | 302 kts | 344° |
| 2026-04-29 10:31 | -26.68979 | -48.71905 | 21410 ft | 303 kts | 344° |
| 2026-04-29 10:31 | -26.66888 | -48.72259 | 21733 ft | 304 kts | 344° |
| 2026-04-29 10:31 | -26.65502 | -48.72494 | 21938 ft | 305 kts | 344° |
| 2026-04-29 10:32 | -26.63403 | -48.72850 | 22252 ft | 306 kts | 344° |
| 2026-04-29 10:32 | -26.61294 | -48.73208 | 22549 ft | 307 kts | 345° |
| 2026-04-29 10:32 | -26.59175 | -48.73567 | 22853 ft | 308 kts | 345° |
| 2026-04-29 10:32 | -26.57051 | -48.73926 | 23146 ft | 309 kts | 345° |
| 2026-04-29 10:33 | -26.54917 | -48.74286 | 23455 ft | 310 kts | 345° |
| 2026-04-29 10:33 | -26.52775 | -48.74649 | 23745 ft | 312 kts | 345° |
| 2026-04-29 10:33 | -26.50630 | -48.75012 | 24017 ft | 312 kts | 345° |
| 2026-04-29 10:33 | -26.48482 | -48.75375 | 24294 ft | 312 kts | 344° |
| 2026-04-29 10:34 | -26.46328 | -48.75740 | 24562 ft | 313 kts | 344° |
| 2026-04-29 10:34 | -26.44172 | -48.76104 | 24829 ft | 314 kts | 344° |
| 2026-04-29 10:34 | -26.42011 | -48.76468 | 25086 ft | 314 kts | 344° |
| 2026-04-29 10:34 | -26.39843 | -48.76835 | 25344 ft | 315 kts | 344° |
| 2026-04-29 10:35 | -26.37697 | -48.77202 | 25512 ft | 318 kts | 344° |
| 2026-04-29 10:35 | -26.35510 | -48.77586 | 25765 ft | 318 kts | 344° |
| 2026-04-29 10:35 | -26.33322 | -48.77970 | 26018 ft | 319 kts | 343° |
| 2026-04-29 10:35 | -26.31122 | -48.78354 | 26264 ft | 320 kts | 343° |
| 2026-04-29 10:36 | -26.28921 | -48.78734 | 26504 ft | 320 kts | 343° |
| 2026-04-29 10:36 | -26.26718 | -48.79112 | 26736 ft | 321 kts | 343° |
| 2026-04-29 10:36 | -26.24503 | -48.79487 | 26961 ft | 322 kts | 343° |
| 2026-04-29 10:36 | -26.22286 | -48.79859 | 27182 ft | 322 kts | 343° |
| 2026-04-29 10:37 | -26.20071 | -48.80244 | 27401 ft | 320 kts | 340° |
| 2026-04-29 10:37 | -26.18103 | -48.81236 | 27565 ft | 308 kts | 319° |
| 2026-04-29 10:37 | -26.16519 | -48.82835 | 27720 ft | 308 kts | 313° |
| 2026-04-29 10:37 | -26.15041 | -48.84567 | 27918 ft | 308 kts | 311° |
| 2026-04-29 10:38 | -26.13405 | -48.86121 | 28055 ft | 314 kts | 324° |
| 2026-04-29 10:38 | -26.09497 | -48.88534 | 28086 ft | 326 kts | 324° |
| 2026-04-29 10:39 | -26.05596 | -48.91183 | 28034 ft | 335 kts | 324° |
| 2026-04-29 10:39 | -26.01579 | -48.93918 | 28028 ft | 342 kts | 324° |
| 2026-04-29 10:40 | -25.97474 | -48.96715 | 28070 ft | 350 kts | 324° |
| 2026-04-29 10:40 | -25.93276 | -48.99574 | 28088 ft | 358 kts | 324° |
| 2026-04-29 10:41 | -25.88986 | -49.02498 | 28105 ft | 365 kts | 324° |
| 2026-04-29 10:41 | -25.84604 | -49.05478 | 28117 ft | 372 kts | 324° |
| 2026-04-29 10:42 | -25.80149 | -49.08508 | 28111 ft | 378 kts | 324° |
| 2026-04-29 10:42 | -25.75633 | -49.11571 | 28132 ft | 383 kts | 324° |
| 2026-04-29 10:43 | -25.71088 | -49.14663 | 28140 ft | 388 kts | 325° |
| 2026-04-29 10:43 | -25.66467 | -49.17796 | 28151 ft | 386 kts | 325° |
| 2026-04-29 10:44 | -25.62002 | -49.20823 | 28148 ft | 366 kts | 324° |
| 2026-04-29 10:44 | -25.57719 | -49.23728 | 28137 ft | 360 kts | 324° |
| 2026-04-29 10:45 | -25.53418 | -49.26638 | 28145 ft | 364 kts | 324° |
| 2026-04-29 10:45 | -25.49069 | -49.29581 | 28124 ft | 368 kts | 324° |
| 2026-04-29 10:46 | -25.44680 | -49.32548 | 28139 ft | 371 kts | 324° |
| 2026-04-29 10:46 | -25.40261 | -49.35532 | 28114 ft | 373 kts | 324° |
| 2026-04-29 10:47 | -25.35865 | -49.38499 | 28119 ft | 373 kts | 324° |
| 2026-04-29 10:47 | -25.31428 | -49.41493 | 28128 ft | 373 kts | 324° |
| 2026-04-29 10:48 | -25.26989 | -49.44485 | 28106 ft | 374 kts | 324° |
| 2026-04-29 10:48 | -25.22541 | -49.47478 | 28076 ft | 374 kts | 324° |
| 2026-04-29 10:49 | -25.18061 | -49.50497 | 28104 ft | 380 kts | 324° |
| 2026-04-29 10:49 | -25.13539 | -49.53538 | 28134 ft | 386 kts | 324° |
| 2026-04-29 10:50 | -25.08917 | -49.56648 | 28120 ft | 392 kts | 325° |
| 2026-04-29 10:50 | -25.04220 | -49.59799 | 28121 ft | 395 kts | 325° |
| 2026-04-29 10:51 | -24.99566 | -49.62920 | 28104 ft | 388 kts | 325° |
| 2026-04-29 10:51 | -24.95018 | -49.65975 | 28107 ft | 382 kts | 324° |
| 2026-04-29 10:52 | -24.90503 | -49.69000 | 28097 ft | 377 kts | 325° |
| 2026-04-29 10:52 | -24.86041 | -49.71986 | 28095 ft | 373 kts | 325° |
| 2026-04-29 10:53 | -24.81720 | -49.75064 | 28112 ft | 366 kts | 319° |
| 2026-04-29 10:53 | -24.77728 | -49.78491 | 28102 ft | 362 kts | 320° |
| 2026-04-29 10:54 | -24.73702 | -49.81741 | 28100 ft | 360 kts | 321° |
| 2026-04-29 10:54 | -24.69643 | -49.84923 | 28095 ft | 357 kts | 322° |
| 2026-04-29 10:55 | -24.65384 | -49.87754 | 28098 ft | 356 kts | 325° |
| 2026-04-29 10:55 | -24.61104 | -49.90475 | 28087 ft | 354 kts | 326° |
| 2026-04-29 10:56 | -24.56844 | -49.93179 | 28095 ft | 352 kts | 326° |
| 2026-04-29 10:56 | -24.52602 | -49.95872 | 28093 ft | 351 kts | 326° |
| 2026-04-29 10:57 | -24.48405 | -49.98535 | 28100 ft | 350 kts | 326° |
| 2026-04-29 10:57 | -24.44192 | -50.01208 | 28075 ft | 349 kts | 326° |
| 2026-04-29 10:58 | -24.39989 | -50.03873 | 28087 ft | 348 kts | 326° |
| 2026-04-29 10:58 | -24.35789 | -50.06533 | 28092 ft | 348 kts | 326° |
| 2026-04-29 10:59 | -24.31604 | -50.09183 | 28088 ft | 347 kts | 326° |
| 2026-04-29 10:59 | -24.27447 | -50.11813 | 28085 ft | 346 kts | 326° |
| 2026-04-29 11:00 | -24.23272 | -50.14454 | 28073 ft | 346 kts | 326° |
| 2026-04-29 11:00 | -24.19093 | -50.17091 | 28088 ft | 348 kts | 326° |
| 2026-04-29 11:01 | -24.14880 | -50.19752 | 28095 ft | 351 kts | 326° |
| 2026-04-29 11:01 | -24.10628 | -50.22435 | 28095 ft | 354 kts | 326° |
| 2026-04-29 11:02 | -24.06335 | -50.25142 | 28090 ft | 357 kts | 326° |
| 2026-04-29 11:02 | -24.02013 | -50.27866 | 28074 ft | 359 kts | 326° |
| 2026-04-29 11:03 | -23.97666 | -50.30595 | 28068 ft | 361 kts | 326° |
| 2026-04-29 11:03 | -23.93334 | -50.33326 | 28069 ft | 362 kts | 326° |
| 2026-04-29 11:04 | -23.88954 | -50.36082 | 28065 ft | 363 kts | 326° |
| 2026-04-29 11:04 | -23.84562 | -50.38838 | 28065 ft | 364 kts | 326° |
| 2026-04-29 11:05 | -23.80158 | -50.41604 | 28070 ft | 366 kts | 326° |
| 2026-04-29 11:05 | -23.75727 | -50.44384 | 28078 ft | 367 kts | 326° |
| 2026-04-29 11:06 | -23.71292 | -50.47166 | 28073 ft | 368 kts | 326° |
| 2026-04-29 11:06 | -23.66850 | -50.49947 | 28061 ft | 368 kts | 326° |
| 2026-04-29 11:07 | -23.62434 | -50.52710 | 28039 ft | 368 kts | 326° |
| 2026-04-29 11:07 | -23.57978 | -50.55500 | 28067 ft | 369 kts | 326° |
| 2026-04-29 11:08 | -23.53511 | -50.58292 | 28069 ft | 370 kts | 326° |
| 2026-04-29 11:08 | -23.49032 | -50.61091 | 28067 ft | 372 kts | 326° |
| 2026-04-29 11:09 | -23.44538 | -50.63896 | 28068 ft | 373 kts | 326° |
| 2026-04-29 11:09 | -23.40028 | -50.66712 | 28053 ft | 374 kts | 326° |
| 2026-04-29 11:10 | -23.35533 | -50.69514 | 28058 ft | 375 kts | 326° |
| 2026-04-29 11:10 | -23.30999 | -50.72337 | 28071 ft | 376 kts | 326° |
| 2026-04-29 11:11 | -23.26453 | -50.75168 | 28065 ft | 377 kts | 326° |
| 2026-04-29 11:11 | -23.21892 | -50.78007 | 28054 ft | 378 kts | 326° |
| 2026-04-29 11:12 | -23.17325 | -50.80847 | 28042 ft | 378 kts | 326° |
| 2026-04-29 11:12 | -23.12778 | -50.83669 | 28045 ft | 378 kts | 326° |
| 2026-04-29 11:13 | -23.08202 | -50.86511 | 28042 ft | 379 kts | 326° |
| 2026-04-29 11:13 | -23.03626 | -50.89351 | 28047 ft | 379 kts | 326° |
| 2026-04-29 11:14 | -22.99042 | -50.92192 | 28019 ft | 379 kts | 327° |
| 2026-04-29 11:14 | -22.94459 | -50.95031 | 28035 ft | 379 kts | 327° |
| 2026-04-29 11:15 | -22.89868 | -50.97874 | 28037 ft | 380 kts | 327° |
| 2026-04-29 11:15 | -22.85269 | -51.00719 | 28038 ft | 380 kts | 327° |
| 2026-04-29 11:16 | -22.80700 | -51.03544 | 28036 ft | 380 kts | 327° |
| 2026-04-29 11:16 | -22.76096 | -51.06388 | 28034 ft | 381 kts | 327° |
| 2026-04-29 11:17 | -22.71487 | -51.09235 | 28038 ft | 381 kts | 327° |
| 2026-04-29 11:17 | -22.66885 | -51.12075 | 28041 ft | 381 kts | 327° |
| 2026-04-29 11:18 | -22.62267 | -51.14922 | 28044 ft | 382 kts | 327° |
| 2026-04-29 11:18 | -22.57642 | -51.17772 | 28039 ft | 382 kts | 327° |
| 2026-04-29 11:19 | -22.53045 | -51.20603 | 28024 ft | 382 kts | 327° |
| 2026-04-29 11:19 | -22.48418 | -51.23450 | 28034 ft | 382 kts | 327° |
| 2026-04-29 11:20 | -22.44576 | -51.25813 | 28031 ft | 382 kts | 327° |
| 2026-04-29 11:20 | -22.39945 | -51.28655 | 28034 ft | 383 kts | 327° |
| 2026-04-29 11:21 | -22.35295 | -51.31490 | 28040 ft | 383 kts | 327° |
| 2026-04-29 11:21 | -22.30680 | -51.34311 | 28043 ft | 383 kts | 327° |
| 2026-04-29 11:22 | -22.26036 | -51.37144 | 28045 ft | 384 kts | 327° |
| 2026-04-29 11:22 | -22.21382 | -51.39981 | 28046 ft | 384 kts | 327° |
| 2026-04-29 11:23 | -22.16739 | -51.42858 | 28041 ft | 382 kts | 321° |
| 2026-04-29 11:23 | -22.14903 | -51.44884 | 28054 ft | 377 kts | 302° |
| 2026-04-29 11:23 | -22.13687 | -51.47377 | 28055 ft | 376 kts | 293° |
| 2026-04-29 11:24 | -22.11866 | -51.52681 | 28052 ft | 377 kts | 290° |
| 2026-04-29 11:24 | -22.09628 | -51.57779 | 28044 ft | 377 kts | 297° |
| 2026-04-29 11:25 | -22.07136 | -51.62764 | 28032 ft | 378 kts | 298° |
| 2026-04-29 11:25 | -22.04654 | -51.67727 | 28026 ft | 378 kts | 296° |
| 2026-04-29 11:25 | -22.03911 | -51.70436 | 28032 ft | 380 kts | 277° |
| 2026-04-29 11:26 | -22.03190 | -51.76063 | 28036 ft | 379 kts | 285° |
| 2026-04-29 11:26 | -22.01557 | -51.81460 | 28041 ft | 378 kts | 291° |
| 2026-04-29 11:27 | -21.99579 | -51.86682 | 28025 ft | 379 kts | 294° |
| 2026-04-29 11:27 | -21.97054 | -51.91667 | 28018 ft | 379 kts | 299° |
| 2026-04-29 11:28 | -21.94431 | -51.96585 | 28019 ft | 379 kts | 299° |
| 2026-04-29 11:28 | -21.91800 | -52.01524 | 28021 ft | 379 kts | 299° |
| 2026-04-29 11:29 | -21.89176 | -52.06455 | 28023 ft | 380 kts | 299° |
| 2026-04-29 11:29 | -21.86552 | -52.11392 | 28022 ft | 380 kts | 299° |
| 2026-04-29 11:30 | -21.83927 | -52.16338 | 28022 ft | 380 kts | 299° |
| 2026-04-29 11:30 | -21.81301 | -52.21275 | 28008 ft | 380 kts | 299° |
| 2026-04-29 11:31 | -21.78668 | -52.26209 | 28011 ft | 380 kts | 299° |
| 2026-04-29 11:31 | -21.76055 | -52.31119 | 28023 ft | 381 kts | 299° |
| 2026-04-29 11:32 | -21.73417 | -52.36076 | 28019 ft | 381 kts | 299° |
| 2026-04-29 11:32 | -21.70778 | -52.41029 | 28024 ft | 381 kts | 299° |
| 2026-04-29 11:33 | -21.68151 | -52.45959 | 28021 ft | 382 kts | 299° |
| 2026-04-29 11:33 | -21.65510 | -52.50912 | 28020 ft | 382 kts | 299° |
| 2026-04-29 11:34 | -21.62871 | -52.55868 | 28019 ft | 382 kts | 299° |
| 2026-04-29 11:34 | -21.60236 | -52.60801 | 28023 ft | 382 kts | 299° |
| 2026-04-29 11:35 | -21.57588 | -52.65761 | 28024 ft | 382 kts | 299° |
| 2026-04-29 11:35 | -21.54950 | -52.70704 | 28022 ft | 382 kts | 299° |
| 2026-04-29 11:36 | -21.52299 | -52.75670 | 28022 ft | 383 kts | 299° |
| 2026-04-29 11:36 | -21.49648 | -52.80630 | 28028 ft | 383 kts | 299° |
| 2026-04-29 11:37 | -21.46994 | -52.85593 | 28029 ft | 383 kts | 299° |
| 2026-04-29 11:37 | -21.44343 | -52.90554 | 28024 ft | 383 kts | 299° |
| 2026-04-29 11:38 | -21.41708 | -52.95480 | 28027 ft | 383 kts | 299° |
| 2026-04-29 11:38 | -21.39052 | -53.00443 | 28029 ft | 383 kts | 299° |
| 2026-04-29 11:39 | -21.36391 | -53.05414 | 28027 ft | 384 kts | 299° |
| 2026-04-29 11:39 | -21.33731 | -53.10384 | 28031 ft | 384 kts | 299° |
| 2026-04-29 11:40 | -21.31068 | -53.15352 | 28027 ft | 384 kts | 299° |
| 2026-04-29 11:40 | -21.28450 | -53.20260 | 27927 ft | 376 kts | 299° |
| 2026-04-29 11:41 | -21.27152 | -53.22686 | 27596 ft | 373 kts | 300° |
| 2026-04-29 11:41 | -21.25864 | -53.25083 | 27234 ft | 368 kts | 300° |
| 2026-04-29 11:41 | -21.24587 | -53.27454 | 26879 ft | 364 kts | 299° |
| 2026-04-29 11:41 | -21.23333 | -53.29791 | 26520 ft | 359 kts | 300° |
| 2026-04-29 11:42 | -21.22097 | -53.32095 | 26164 ft | 354 kts | 300° |
| 2026-04-29 11:42 | -21.20896 | -53.34331 | 25818 ft | 348 kts | 300° |
| 2026-04-29 11:42 | -21.19696 | -53.36567 | 25466 ft | 343 kts | 300° |
| 2026-04-29 11:42 | -21.18515 | -53.38765 | 25113 ft | 337 kts | 300° |
| 2026-04-29 11:43 | -21.17353 | -53.40929 | 24759 ft | 331 kts | 300° |
| 2026-04-29 11:43 | -21.16217 | -53.43045 | 24404 ft | 325 kts | 300° |
| 2026-04-29 11:43 | -21.15103 | -53.45125 | 24054 ft | 319 kts | 300° |
| 2026-04-29 11:43 | -21.14012 | -53.47152 | 23703 ft | 316 kts | 300° |
| 2026-04-29 11:44 | -21.12917 | -53.49191 | 23312 ft | 316 kts | 300° |
| 2026-04-29 11:44 | -21.11823 | -53.51226 | 22910 ft | 315 kts | 300° |
| 2026-04-29 11:44 | -21.10732 | -53.53255 | 22511 ft | 313 kts | 300° |
| 2026-04-29 11:44 | -21.09647 | -53.55276 | 22116 ft | 312 kts | 300° |
| 2026-04-29 11:45 | -21.08565 | -53.57289 | 21741 ft | 311 kts | 301° |
| 2026-04-29 11:45 | -21.07489 | -53.59293 | 21364 ft | 310 kts | 301° |
| 2026-04-29 11:45 | -21.06414 | -53.61290 | 21005 ft | 308 kts | 301° |
| 2026-04-29 11:45 | -21.05346 | -53.63278 | 20658 ft | 307 kts | 301° |
| 2026-04-29 11:46 | -21.04285 | -53.65252 | 20313 ft | 305 kts | 301° |
| 2026-04-29 11:46 | -21.03242 | -53.67193 | 19981 ft | 304 kts | 301° |
| 2026-04-29 11:46 | -21.02190 | -53.69147 | 19634 ft | 302 kts | 301° |
| 2026-04-29 11:46 | -21.01141 | -53.71097 | 19303 ft | 300 kts | 301° |
| 2026-04-29 11:47 | -21.00101 | -53.73030 | 18980 ft | 299 kts | 301° |
| 2026-04-29 11:47 | -20.99067 | -53.74950 | 18667 ft | 297 kts | 301° |
| 2026-04-29 11:47 | -20.98038 | -53.76863 | 18355 ft | 295 kts | 301° |
| 2026-04-29 11:47 | -20.97015 | -53.78764 | 17989 ft | 294 kts | 301° |
| 2026-04-29 11:48 | -20.96014 | -53.80627 | 17631 ft | 292 kts | 301° |
| 2026-04-29 11:48 | -20.95002 | -53.82504 | 17281 ft | 290 kts | 301° |
| 2026-04-29 11:48 | -20.93997 | -53.84369 | 16927 ft | 288 kts | 301° |
| 2026-04-29 11:48 | -20.92998 | -53.86224 | 16579 ft | 287 kts | 301° |
| 2026-04-29 11:49 | -20.92005 | -53.88067 | 16230 ft | 285 kts | 301° |
| 2026-04-29 11:49 | -20.91017 | -53.89902 | 15889 ft | 284 kts | 301° |
| 2026-04-29 11:49 | -20.90032 | -53.91731 | 15563 ft | 282 kts | 301° |
| 2026-04-29 11:49 | -20.89053 | -53.93549 | 15238 ft | 281 kts | 301° |
| 2026-04-29 11:50 | -20.88079 | -53.95356 | 14913 ft | 280 kts | 301° |
| 2026-04-29 11:50 | -20.87108 | -53.97158 | 14594 ft | 279 kts | 301° |
| 2026-04-29 11:50 | -20.86140 | -53.98953 | 14278 ft | 278 kts | 301° |
| 2026-04-29 11:50 | -20.85175 | -54.00742 | 13977 ft | 278 kts | 301° |
| 2026-04-29 11:51 | -20.84212 | -54.02530 | 13652 ft | 277 kts | 301° |
| 2026-04-29 11:51 | -20.83252 | -54.04312 | 13318 ft | 276 kts | 301° |
| 2026-04-29 11:51 | -20.82294 | -54.06086 | 12987 ft | 275 kts | 301° |
| 2026-04-29 11:51 | -20.81338 | -54.07859 | 12663 ft | 275 kts | 301° |
| 2026-04-29 11:52 | -20.80386 | -54.09625 | 12337 ft | 274 kts | 301° |
| 2026-04-29 11:52 | -20.79445 | -54.11367 | 12034 ft | 274 kts | 301° |
| 2026-04-29 11:52 | -20.78491 | -54.13134 | 11726 ft | 273 kts | 301° |
| 2026-04-29 11:52 | -20.77542 | -54.14893 | 11431 ft | 273 kts | 301° |
| 2026-04-29 11:53 | -20.76593 | -54.16651 | 11134 ft | 273 kts | 301° |
| 2026-04-29 11:53 | -20.75647 | -54.18406 | 10853 ft | 272 kts | 301° |
| 2026-04-29 11:53 | -20.74699 | -54.20161 | 10572 ft | 272 kts | 301° |
| 2026-04-29 11:53 | -20.73753 | -54.21913 | 10293 ft | 272 kts | 301° |
| 2026-04-29 11:54 | -20.72805 | -54.23668 | 10005 ft | 273 kts | 301° |
| 2026-04-29 11:54 | -20.71855 | -54.25427 | 9720 ft | 273 kts | 302° |
| 2026-04-29 11:54 | -20.70909 | -54.27181 | 9433 ft | 272 kts | 302° |
| 2026-04-29 11:54 | -20.69975 | -54.28908 | 9140 ft | 272 kts | 302° |
| 2026-04-29 11:55 | -20.69028 | -54.30658 | 8872 ft | 272 kts | 302° |
| 2026-04-29 11:55 | -20.68079 | -54.32414 | 8604 ft | 272 kts | 302° |
| 2026-04-29 11:55 | -20.67131 | -54.34171 | 8344 ft | 273 kts | 302° |
| 2026-04-29 11:55 | -20.66183 | -54.35926 | 8085 ft | 273 kts | 302° |
| 2026-04-29 11:56 | -20.65233 | -54.37683 | 7829 ft | 272 kts | 302° |
| 2026-04-29 11:56 | -20.64302 | -54.39407 | 7561 ft | 264 kts | 302° |
| 2026-04-29 11:56 | -20.63395 | -54.41084 | 7290 ft | 258 kts | 302° |
| 2026-04-29 11:56 | -20.62518 | -54.42707 | 7024 ft | 253 kts | 302° |
| 2026-04-29 11:57 | -20.61645 | -54.44320 | 6746 ft | 249 kts | 302° |
| 2026-04-29 11:57 | -20.60794 | -54.45915 | 6448 ft | 245 kts | 301° |
| 2026-04-29 11:57 | -20.59987 | -54.47517 | 6145 ft | 242 kts | 300° |
| 2026-04-29 11:57 | -20.59210 | -54.49104 | 5827 ft | 240 kts | 300° |
| 2026-04-29 11:58 | -20.58620 | -54.50762 | 5499 ft | 243 kts | 279° |
| 2026-04-29 11:58 | -20.58889 | -54.52545 | 5170 ft | 249 kts | 246° |
| 2026-04-29 11:58 | -20.59962 | -54.53964 | 5068 ft | 243 kts | 226° |
| 2026-04-29 11:58 | -20.61186 | -54.55119 | 4997 ft | 233 kts | 223° |
| 2026-04-29 11:59 | -20.62283 | -54.56300 | 4990 ft | 216 kts | 235° |
| 2026-04-29 11:59 | -20.63148 | -54.57562 | 5017 ft | 207 kts | 242° |
| 2026-04-29 11:59 | -20.63823 | -54.58884 | 5011 ft | 199 kts | 248° |
| 2026-04-29 11:59 | -20.64407 | -54.60204 | 5028 ft | 194 kts | 250° |
| 2026-04-29 12:00 | -20.64928 | -54.61530 | 5020 ft | 192 kts | 256° |
| 2026-04-29 12:00 | -20.65306 | -54.62907 | 5026 ft | 195 kts | 259° |
| 2026-04-29 12:00 | -20.65644 | -54.64325 | 5016 ft | 198 kts | 260° |
| 2026-04-29 12:00 | -20.65966 | -54.65763 | 5006 ft | 200 kts | 261° |
| 2026-04-29 12:01 | -20.66270 | -54.67223 | 5019 ft | 202 kts | 266° |
| 2026-04-29 12:01 | -20.66286 | -54.68707 | 5022 ft | 198 kts | 278° |
| 2026-04-29 12:01 | -20.66162 | -54.70176 | 4974 ft | 199 kts | 280° |
| 2026-04-29 12:01 | -20.65928 | -54.71621 | 4907 ft | 197 kts | 287° |
| 2026-04-29 12:02 | -20.65568 | -54.73022 | 4788 ft | 195 kts | 290° |
| 2026-04-29 12:02 | -20.65172 | -54.74385 | 4682 ft | 194 kts | 294° |
| 2026-04-29 12:02 | -20.64477 | -54.75601 | 4533 ft | 192 kts | 309° |
| 2026-04-29 12:02 | -20.63669 | -54.76735 | 4409 ft | 192 kts | 311° |
| 2026-04-29 12:03 | -20.62840 | -54.77849 | 4293 ft | 192 kts | 312° |
| 2026-04-29 12:03 | -20.61889 | -54.78808 | 4149 ft | 186 kts | 336° |
| 2026-04-29 12:03 | -20.60661 | -54.79208 | 3693 ft | 178 kts | 350° |
| 2026-04-29 12:03 | -20.59518 | -54.79341 | 3543 ft | 158 kts | 12° |
| 2026-04-29 12:04 | -20.58628 | -54.78739 | 3421 ft | 150 kts | 41° |
| 2026-04-29 12:04 | -20.57880 | -54.77994 | 3479 ft | 146 kts | 40° |
| 2026-04-29 12:04 | -20.57137 | -54.77267 | 3510 ft | 145 kts | 40° |
| 2026-04-29 12:04 | -20.56394 | -54.76536 | 3526 ft | 145 kts | 41° |
| 2026-04-29 12:05 | -20.55685 | -54.75825 | 3527 ft | 135 kts | 40° |
| 2026-04-29 12:05 | -20.55013 | -54.75160 | 3515 ft | 129 kts | 41° |
| 2026-04-29 12:05 | -20.54334 | -54.74505 | 3552 ft | 134 kts | 40° |
| 2026-04-29 12:05 | -20.53634 | -54.73832 | 3525 ft | 136 kts | 40° |
| 2026-04-29 12:06 | -20.52923 | -54.73138 | 3499 ft | 137 kts | 41° |
| 2026-04-29 12:06 | -20.52250 | -54.72444 | 3366 ft | 130 kts | 42° |
| 2026-04-29 12:06 | -20.51617 | -54.71800 | 3093 ft | 128 kts | 40° |
| 2026-04-29 12:06 | -20.50896 | -54.71171 | 2771 ft | 135 kts | 38° |
| 2026-04-29 12:07 | -20.50221 | -54.70506 | 2580 ft | 135 kts | 43° |
| 2026-04-29 12:07 | -20.49527 | -54.69822 | 2335 ft | 134 kts | 40° |
| 2026-04-29 12:07 | -20.48835 | -54.69176 | 2131 ft | 132 kts | 42° |
| 2026-04-29 12:07 | -20.48175 | -54.68525 | 1987 ft | 126 kts | 40° |
| 2026-04-29 12:08 | -20.47560 | -54.67940 | 1848 ft | 105 kts | 40° |
| 2026-04-29 12:08 | -20.47099 | -54.67497 | 1836 ft | 75 kts | 43° |
| 2026-04-29 12:08 | -20.46776 | -54.67183 | 1837 ft | 46 kts | 42° |
| 2026-04-29 12:08 | -20.46591 | -54.67000 | 1837 ft | 33 kts | 41° |
| 2026-04-29 12:09 | -20.46473 | -54.66891 | 1835 ft | 16 kts | 40° |
| 2026-04-29 12:09 | -20.46396 | -54.66820 | 1835 ft | 13 kts | 44° |
| 2026-04-29 12:09 | -20.46335 | -54.66757 | 1835 ft | 12 kts | 42° |
| 2026-04-29 12:09 | -20.46275 | -54.66698 | 1834 ft | 12 kts | 43° |
| 2026-04-29 12:10 | -20.46232 | -54.66656 | 1834 ft | 12 kts | 42° |
| 2026-04-29 12:10 | -20.46172 | -54.66607 | 1835 ft | 9 kts | 18° |
| 2026-04-29 12:10 | -20.46112 | -54.66616 | 1836 ft | 10 kts | 341° |
| 2026-04-29 12:10 | -20.46047 | -54.66643 | 1836 ft | 9 kts | 339° |
| 2026-04-29 12:11 | -20.45987 | -54.66668 | 1836 ft | 10 kts | 338° |
| 2026-04-29 12:11 | -20.45922 | -54.66695 | 1836 ft | 11 kts | 338° |
| 2026-04-29 12:11 | -20.45856 | -54.66723 | 1836 ft | 9 kts | 334° |
| 2026-04-29 12:11 | -20.45834 | -54.66774 | 1836 ft | 8 kts | 266° |
| 2026-04-29 12:12 | -20.45818 | -54.66813 | 1836 ft | 5 kts | 341° |
| 2026-04-29 12:12 | -20.45791 | -54.66817 | 1836 ft | 3 kts | 354° |
| 2026-04-29 12:12 | -20.45783 | -54.66818 | 1836 ft | 0 kts | 354° |